Time;durP1;ratioP1;P1;durP2;ratioP2;P2;SDS_P1;SDS_P2;PMS_P1;PMS_P2;Temp;Humidity;BMP_temperature;BMP_pressure;BME280_temperature;BME280_humidity;BME280_pressure;Samples;Min_cycle;Max_cycle;Signal;HPM_P1;HPM_P2
2021/08/24 00:00:08;;;;;;;23.80;21.30;;;;;;;15.42;100.00;98970.56;2081435;28;20227;-72
2021/08/24 00:01:15;;;;;;;22.00;19.90;;;;;;;15.42;100.00;98974.06;2080968;28;20266;-72
2021/08/24 00:02:16;;;;;;;23.13;20.67;;;;;;;15.41;100.00;98969.78;2080579;28;20270;-73
2021/08/24 00:03:18;;;;;;;24.60;22.00;;;;;;;15.40;100.00;98973.59;2080708;28;20489;-73
2021/08/24 00:04:19;;;;;;;24.13;21.63;;;;;;;15.39;100.00;98972.03;2081262;28;20470;-72
2021/08/24 00:05:25;;;;;;;28.77;23.07;;;;;;;15.40;100.00;98972.81;2081498;28;20231;-72
2021/08/24 00:06:27;;;;;;;25.57;21.93;;;;;;;15.39;100.00;98971.25;2080315;28;20725;-72
2021/08/24 00:07:27;;;;;;;24.97;22.30;;;;;;;15.42;100.00;98978.63;2080683;28;20589;-73
2021/08/24 00:08:29;;;;;;;25.97;23.33;;;;;;;15.40;100.00;98978.97;2081309;28;20450;-73
2021/08/24 00:09:30;;;;;;;27.92;24.23;;;;;;;15.41;100.00;98974.38;2081433;28;20610;-72
2021/08/24 00:10:35;;;;;;;26.65;23.83;;;;;;;15.41;100.00;98972.47;2080570;28;20358;-72
2021/08/24 00:11:36;;;;;;;26.50;23.70;;;;;;;15.40;100.00;98965.53;2080768;28;20753;-72
2021/08/24 00:12:38;;;;;;;27.07;24.17;;;;;;;15.40;100.00;98968.22;2081088;28;20598;-73
2021/08/24 00:13:39;;;;;;;28.85;25.73;;;;;;;15.41;100.00;98963.63;2080551;28;20576;-73
2021/08/24 00:14:40;;;;;;;29.90;25.00;;;;;;;15.40;100.00;98968.22;2080628;28;20318;-73
2021/08/24 00:15:48;;;;;;;30.67;26.00;;;;;;;15.41;100.00;98975.16;2081324;28;20642;-72
2021/08/24 00:16:49;;;;;;;32.30;24.92;;;;;;;15.41;100.00;98977.06;2081184;28;20247;-73
2021/08/24 00:17:50;;;;;;;36.65;28.00;;;;;;;15.42;100.00;98971.34;2081346;28;20316;-73
2021/08/24 00:18:51;;;;;;;29.70;25.67;;;;;;;15.38;100.00;98964.31;2080455;28;20247;-72
2021/08/24 00:19:52;;;;;;;31.83;26.55;;;;;;;15.40;100.00;98965.53;2080285;28;20696;-73
2021/08/24 00:20:56;;;;;;;30.77;25.03;;;;;;;15.39;100.00;98968.56;2081300;28;20223;-72
2021/08/24 00:21:56;;;;;;;36.08;25.77;;;;;;;15.37;100.00;98962.69;2081322;28;20630;-73
2021/08/24 00:22:58;;;;;;;28.40;24.87;;;;;;;15.38;100.00;98959.72;2081229;28;20300;-72
2021/08/24 00:23:59;;;;;;;26.73;23.80;;;;;;;15.39;100.00;98958.59;2081313;28;20310;-73
2021/08/24 00:25:00;;;;;;;27.47;24.47;;;;;;;15.39;100.00;98955.91;2081366;28;20231;-73
2021/08/24 00:26:02;;;;;;;26.70;23.98;;;;;;;15.40;100.00;98959.38;2080292;28;20307;-73
2021/08/24 00:27:04;;;;;;;27.17;24.25;;;;;;;15.42;100.00;98960.59;2080574;28;20319;-73
2021/08/24 00:28:05;;;;;;;26.58;23.67;;;;;;;15.40;100.00;98957.47;2081285;28;20227;-73
2021/08/24 00:29:06;;;;;;;24.52;22.05;;;;;;;15.41;100.00;98958.25;2081327;28;20306;-73
2021/08/24 00:30:08;;;;;;;26.88;23.60;;;;;;;15.41;100.00;98963.63;2080865;28;20273;-73
2021/08/24 00:31:10;;;;;;;25.48;22.98;;;;;;;15.42;100.00;98959.81;2081298;28;20285;-73
2021/08/24 00:32:11;;;;;;;25.08;22.40;;;;;;;15.41;100.00;98963.63;2080405;28;20254;-73
2021/08/24 00:33:13;;;;;;;24.03;21.73;;;;;;;15.40;100.00;98959.38;2079731;28;20235;-72
2021/08/24 00:34:14;;;;;;;26.55;22.40;;;;;;;15.39;100.00;98963.19;2080554;28;20223;-73
2021/08/24 00:35:15;;;;;;;24.57;22.13;;;;;;;15.40;100.00;98962.06;2081315;28;20258;-73
2021/08/24 00:36:19;;;;;;;23.60;21.20;;;;;;;15.41;100.00;98963.63;2081114;28;20326;-73
2021/08/24 00:37:21;;;;;;;24.92;22.45;;;;;;;15.40;100.00;98967.44;2081029;28;20705;-73
2021/08/24 00:38:24;;;;;;;25.13;22.50;;;;;;;15.38;100.00;98969.69;2080709;28;20226;-73
2021/08/24 00:39:25;;;;;;;24.70;22.20;;;;;;;15.40;100.00;98968.22;2081090;28;20245;-72
2021/08/24 00:40:27;;;;;;;24.73;22.13;;;;;;;15.42;100.00;98967.88;2081053;28;20227;-72
2021/08/24 00:41:29;;;;;;;23.45;21.00;;;;;;;15.44;100.00;98968.34;2081189;28;20256;-73
2021/08/24 00:42:29;;;;;;;25.58;21.70;;;;;;;15.43;100.00;98964.88;2080145;28;20585;-72
2021/08/24 00:43:32;;;;;;;24.27;21.87;;;;;;;15.43;100.00;98958.69;2080538;28;20231;-72
2021/08/24 00:44:33;;;;;;;24.00;21.50;;;;;;;15.42;100.00;98968.66;2081116;28;20230;-72
2021/08/24 00:45:36;;;;;;;23.83;21.30;;;;;;;15.40;100.00;98962.84;2081175;28;20231;-72
2021/08/24 00:46:38;;;;;;;24.08;21.73;;;;;;;15.39;100.00;98963.97;2079914;28;20761;-72
2021/08/24 00:47:41;;;;;;;25.27;22.52;;;;;;;15.41;100.00;98963.63;2072222;28;20656;-72
2021/08/24 00:48:42;;;;;;;23.90;21.40;;;;;;;15.42;100.00;98960.59;2080376;28;20250;-72
2021/08/24 00:49:46;;;;;;;23.63;21.30;;;;;;;15.42;100.00;98965.19;2080126;28;20310;-72
2021/08/24 00:50:48;;;;;;;24.10;21.60;;;;;;;15.42;100.00;98957.13;2080378;28;20235;-72
2021/08/24 00:51:55;;;;;;;23.08;20.90;;;;;;;15.43;100.00;98966.78;2079868;28;20224;-72
2021/08/24 00:52:56;;;;;;;24.17;21.58;;;;;;;15.43;100.00;98964.06;2072397;28;20244;-72
2021/08/24 00:53:58;;;;;;;24.70;21.27;;;;;;;15.42;100.00;98957.13;2080360;28;20295;-72
2021/08/24 00:55:00;;;;;;;24.67;22.05;;;;;;;15.45;100.00;98964.53;2080962;28;20482;-72
2021/08/24 00:56:02;;;;;;;25.42;22.17;;;;;;;15.42;100.00;98965.97;2081118;28;20666;-73
2021/08/24 00:57:05;;;;;;;26.27;23.00;;;;;;;15.43;100.00;98964.88;2080941;28;20622;-72
2021/08/24 00:58:10;;;;;;;24.73;22.25;;;;;;;15.43;100.00;98972.94;2081123;28;20633;-72
2021/08/24 00:59:10;;;;;;;25.77;21.88;;;;;;;15.41;100.00;98969.78;2080459;28;20239;-72
2021/08/24 01:00:13;;;;;;;24.93;21.07;;;;;;;15.41;100.00;98975.16;2081064;28;20261;-72
2021/08/24 01:01:15;;;;;;;24.98;22.45;;;;;;;15.42;100.00;98973.25;2080050;28;20236;-72
2021/08/24 01:02:16;;;;;;;24.20;21.65;;;;;;;15.40;100.00;98978.19;2080305;28;20219;-72
2021/08/24 01:03:20;;;;;;;24.30;21.75;;;;;;;15.39;100.00;98976.63;2081011;28;20219;-72
2021/08/24 01:04:22;;;;;;;27.10;22.45;;;;;;;15.39;100.00;98973.94;2080918;28;20629;-72
2021/08/24 01:05:25;;;;;;;24.47;22.07;;;;;;;15.39;100.00;98977.41;2079212;28;20274;-72
2021/08/24 01:06:37;;;;;;;25.05;22.58;;;;;;;15.41;100.00;98979.75;2079954;28;20600;-72
2021/08/24 01:07:42;;;;;;;24.52;21.63;;;;;;;15.39;100.00;98971.25;2080648;28;20243;-73
2021/08/24 01:08:49;;;;;;;26.60;22.45;;;;;;;15.41;100.00;98977.84;2079997;28;20700;-72
2021/08/24 01:09:54;;;;;;;26.75;22.13;;;;;;;15.40;100.00;98967.44;2072554;28;20571;-72
2021/08/24 01:11:06;;;;;;;23.30;20.93;;;;;;;15.40;100.00;98964.75;2079973;28;20682;-72
2021/08/24 01:12:18;;;;;;;23.58;21.08;;;;;;;15.42;100.00;98971.34;2080606;28;20561;-72
2021/08/24 01:13:25;;;;;;;23.80;21.42;;;;;;;15.44;100.00;98968.34;2080886;28;20222;-72
2021/08/24 01:14:32;;;;;;;28.60;23.13;;;;;;;15.43;100.00;98969.47;2079787;28;20231;-72
2021/08/24 01:15:36;;;;;;;27.17;21.83;;;;;;;15.42;100.00;98963.28;2071931;28;20262;-72
2021/08/24 01:16:41;;;;;;;26.57;23.17;;;;;;;15.42;100.00;98971.34;2079837;28;20222;-72
2021/08/24 01:17:49;;;;;;;27.05;23.52;;;;;;;15.43;100.00;98962.19;2080626;28;20454;-72
2021/08/24 01:19:00;;;;;;;29.38;22.70;;;;;;;15.44;100.00;98965.66;2080763;28;20219;-72
2021/08/24 01:20:23;;;;;;;25.90;23.10;;;;;;;15.46;100.00;98966.09;2079489;28;20245;-72
2021/08/24 01:21:35;;;;;;;25.67;22.13;;;;;;;15.46;100.00;98966.91;2079905;28;20707;-72
2021/08/24 01:23:05;;;;;;;24.70;22.40;;;;;;;15.49;100.00;98976.22;2080835;28;20247;-72
2021/08/24 01:24:12;;;;;;;25.63;22.50;;;;;;;15.50;100.00;98973.19;2080564;28;20227;-72
2021/08/24 01:25:15;;;;;;;25.13;22.48;;;;;;;15.49;100.00;98966.25;2079522;28;20234;-72
2021/08/24 01:26:24;;;;;;;27.10;22.73;;;;;;;15.49;100.00;98968.16;2080027;28;20227;-72
2021/08/24 01:27:30;;;;;;;24.73;22.23;;;;;;;15.48;100.00;98961.19;2080318;28;20503;-73
2021/08/24 01:28:39;;;;;;;24.95;22.45;;;;;;;15.49;100.00;98960.09;2079841;28;20541;-72
2021/08/24 01:30:24;;;;;;;25.15;22.48;;;;;;;15.49;100.00;98960.88;2079759;28;20222;-72
2021/08/24 01:31:53;;;;;;;35.22;22.23;;;;;;;15.49;100.00;98960.09;2080016;28;20567;-72
2021/08/24 01:33:03;;;;;;;24.70;21.95;;;;;;;15.52;100.00;98954.03;2077169;28;20701;-72
2021/08/24 01:34:09;;;;;;;24.80;21.90;;;;;;;15.51;100.00;98955.94;2080081;28;20664;-72
2021/08/24 01:35:43;;;;;;;24.40;21.80;;;;;;;15.52;100.00;98948.66;2080369;28;20482;-72
2021/08/24 01:36:47;;;;;;;24.05;21.70;;;;;;;15.50;100.00;98956.28;2080151;28;20311;-72
2021/08/24 01:37:55;;;;;;;24.30;21.65;;;;;;;15.49;100.00;98952.00;2080581;28;20227;-72
2021/08/24 01:39:02;;;;;;;27.23;21.13;;;;;;;15.49;100.00;98962.78;2079602;28;20724;-72
2021/08/24 01:40:07;;;;;;;25.20;22.13;;;;;;;15.47;100.00;98959.63;2080049;28;20258;-73
2021/08/24 01:41:12;;;;;;;24.92;22.08;;;;;;;15.46;100.00;98958.03;2080137;28;20293;-72
2021/08/24 01:42:15;;;;;;;24.02;21.58;;;;;;;15.45;100.00;98959.16;2080743;28;20219;-72
2021/08/24 01:43:22;;;;;;;26.10;23.02;;;;;;;15.43;100.00;98958.69;2080708;28;20223;-72
2021/08/24 01:44:24;;;;;;;25.30;22.77;;;;;;;15.45;100.00;98953.78;2080432;28;20653;-72
2021/08/24 01:45:30;;;;;;;26.83;23.00;;;;;;;15.44;100.00;98955.69;2080678;28;20216;-72
2021/08/24 01:46:38;;;;;;;32.92;23.00;;;;;;;15.44;100.00;98958.38;2079763;28;20224;-72
2021/08/24 01:47:45;;;;;;;24.83;22.15;;;;;;;15.44;100.00;98952.22;2079634;28;20310;-72
2021/08/24 01:48:48;;;;;;;26.35;22.77;;;;;;;15.45;100.00;98959.16;2080617;28;20302;-72
2021/08/24 01:49:58;;;;;;;24.90;22.25;;;;;;;15.43;100.00;98954.09;2080696;28;20227;-72
2021/08/24 01:51:02;;;;;;;24.17;21.58;;;;;;;15.43;100.00;98958.69;2080217;28;20215;-72
2021/08/24 01:52:09;;;;;;;26.52;22.60;;;;;;;15.38;100.00;98953.53;2080687;28;20219;-72
2021/08/24 01:53:15;;;;;;;30.52;22.73;;;;;;;15.40;100.00;98960.16;2080351;28;20231;-72
2021/08/24 01:54:21;;;;;;;24.00;21.55;;;;;;;15.39;100.00;98960.50;2079767;28;20674;-72
2021/08/24 01:55:25;;;;;;;24.85;21.40;;;;;;;15.36;100.00;98966.50;2079651;28;20219;-72
2021/08/24 01:56:32;;;;;;;27.13;22.23;;;;;;;15.36;100.00;98961.13;2079578;28;20281;-72
2021/08/24 01:57:37;;;;;;;29.98;22.20;;;;;;;15.36;100.00;98966.50;2079903;28;20624;-72
2021/08/24 01:58:43;;;;;;;26.23;21.50;;;;;;;15.35;100.00;98970.31;2080238;28;20225;-72
2021/08/24 01:59:47;;;;;;;30.23;23.33;;;;;;;15.38;100.00;98970.47;2080556;28;20231;-72
2021/08/24 02:00:52;;;;;;;28.63;22.63;;;;;;;15.35;100.00;98967.63;2080656;28;20219;-72
2021/08/24 02:01:56;;;;;;;29.65;22.45;;;;;;;15.35;100.00;98973.78;2080232;28;20623;-74
2021/08/24 02:03:01;;;;;;;26.33;23.52;;;;;;;15.33;100.00;98953.75;2080508;28;20243;-72
2021/08/24 02:04:04;;;;;;;24.80;21.65;;;;;;;15.32;100.00;98963.69;2080566;28;20238;-72
2021/08/24 02:05:09;;;;;;;27.30;23.33;;;;;;;15.32;100.00;98960.22;2079624;28;20270;-72
2021/08/24 02:06:13;;;;;;;25.42;22.73;;;;;;;15.32;100.00;98954.84;2071750;28;20232;-73
2021/08/24 02:07:17;;;;;;;26.30;23.40;;;;;;;15.31;100.00;98955.97;2079893;28;20235;-72
2021/08/24 02:08:21;;;;;;;25.50;22.55;;;;;;;15.31;100.00;98953.28;2080610;28;20728;-72
2021/08/24 02:09:28;;;;;;;26.17;23.38;;;;;;;15.29;100.00;98948.25;2080153;28;20234;-72
2021/08/24 02:10:29;;;;;;;28.95;23.05;;;;;;;15.33;100.00;98953.75;2079442;28;20222;-72
2021/08/24 02:11:33;;;;;;;25.33;22.63;;;;;;;15.32;100.00;98944.88;2079895;28;20678;-72
2021/08/24 02:12:37;;;;;;;27.75;22.73;;;;;;;15.33;100.00;98953.75;2080582;28;20273;-72
2021/08/24 02:13:42;;;;;;;27.63;22.80;;;;;;;15.35;100.00;98948.81;2079285;28;20235;-72
2021/08/24 02:14:44;;;;;;;25.92;22.02;;;;;;;15.35;100.00;98954.97;2079677;28;20324;-72
2021/08/24 02:15:47;;;;;;;26.92;22.60;;;;;;;15.35;100.00;98948.81;2079818;28;20232;-72
2021/08/24 02:16:50;;;;;;;29.58;23.75;;;;;;;15.36;100.00;98945.78;2080615;28;20315;-72
2021/08/24 02:17:51;;;;;;;30.33;23.15;;;;;;;15.35;100.00;98949.59;2079467;28;20234;-72
2021/08/24 02:18:54;;;;;;;26.63;22.65;;;;;;;15.37;100.00;98946.56;2079262;28;20227;-72
2021/08/24 02:20:00;;;;;;;26.40;23.48;;;;;;;15.36;100.00;98945.00;2079679;28;20231;-72
2021/08/24 02:21:04;;;;;;;28.77;22.55;;;;;;;15.35;100.00;98944.22;2079918;28;20316;-72
2021/08/24 02:22:10;;;;;;;27.42;23.13;;;;;;;15.36;100.00;98940.41;2080630;28;20230;-72
2021/08/24 02:23:16;;;;;;;34.83;25.35;;;;;;;15.37;100.00;98941.19;2080041;28;20259;-72
2021/08/24 02:24:20;;;;;;;27.88;23.27;;;;;;;15.37;100.00;98941.19;2079664;28;20235;-72
2021/08/24 02:25:24;;;;;;;27.73;24.15;;;;;;;15.36;100.00;98936.94;2079751;28;20321;-72
2021/08/24 02:26:26;;;;;;;29.88;23.35;;;;;;;15.35;100.00;98933.47;2080079;28;20326;-72
2021/08/24 02:27:31;;;;;;;32.88;23.10;;;;;;;15.34;100.00;98931.13;2080493;28;20254;-72
2021/08/24 02:28:34;;;;;;;32.00;23.13;;;;;;;15.34;100.00;98936.50;2079622;28;20624;-72
2021/08/24 02:29:36;;;;;;;26.70;23.35;;;;;;;15.35;100.00;98943.44;2079850;28;20262;-73
2021/08/24 02:30:40;;;;;;;28.38;23.55;;;;;;;15.36;100.00;98942.31;2080099;28;20724;-72
2021/08/24 02:31:45;;;;;;;27.45;22.67;;;;;;;15.33;100.00;98938.38;2080406;28;20223;-72
2021/08/24 02:32:49;;;;;;;36.03;22.65;;;;;;;15.32;100.00;98928.75;2080344;28;20280;-72
2021/08/24 02:33:55;;;;;;;32.92;23.77;;;;;;;15.34;100.00;98937.28;2080338;28;20223;-73
2021/08/24 02:34:59;;;;;;;30.10;24.02;;;;;;;15.35;100.00;98933.47;2080037;28;20736;-72
2021/08/24 02:36:02;;;;;;;29.13;23.23;;;;;;;15.35;100.00;98932.69;2080315;28;20771;-73
2021/08/24 02:37:08;;;;;;;30.60;22.98;;;;;;;15.36;100.00;98928.88;2080309;28;20713;-72
2021/08/24 02:38:15;;;;;;;29.27;22.23;;;;;;;15.35;100.00;98920.03;2079913;28;20235;-73
2021/08/24 02:39:21;;;;;;;28.63;22.48;;;;;;;15.39;100.00;98934.38;2080313;28;20299;-73
2021/08/24 02:40:33;;;;;;;30.73;22.88;;;;;;;15.37;100.00;98925.06;2080089;28;20249;-73
2021/08/24 02:41:39;;;;;;;30.73;23.42;;;;;;;15.38;100.00;98932.03;2080310;28;20302;-73
2021/08/24 02:42:46;;;;;;;34.15;24.55;;;;;;;15.37;100.00;98925.84;2080052;28;20305;-72
2021/08/24 02:43:53;;;;;;;31.83;22.80;;;;;;;15.36;100.00;98928.88;2080509;28;20785;-73
2021/08/24 02:45:00;;;;;;;30.40;24.38;;;;;;;15.34;100.00;98928.44;2079936;28;20296;-72
2021/08/24 02:46:06;;;;;;;28.60;23.45;;;;;;;15.36;100.00;98928.88;2080220;28;20239;-72
2021/08/24 02:47:08;;;;;;;39.33;24.58;;;;;;;15.33;100.00;98924.94;2080033;28;20369;-73
2021/08/24 02:48:11;;;;;;;28.75;23.92;;;;;;;15.30;100.00;98925.63;2080357;28;20227;-73
2021/08/24 02:49:15;;;;;;;30.10;23.63;;;;;;;15.32;100.00;98930.66;2079463;28;20287;-73
2021/08/24 02:50:16;;;;;;;28.02;23.58;;;;;;;15.28;100.00;98915.19;2079693;28;20443;-73
2021/08/24 02:51:19;;;;;;;36.92;24.85;;;;;;;15.28;100.00;98925.94;2079355;28;20310;-72
2021/08/24 02:52:21;;;;;;;30.05;24.05;;;;;;;15.26;100.00;98925.47;2079644;28;20643;-72
2021/08/24 02:53:23;;;;;;;33.35;24.27;;;;;;;15.27;100.00;98932.41;2079910;28;20251;-73
2021/08/24 02:54:28;;;;;;;30.48;23.98;;;;;;;15.26;100.00;98928.16;2080275;28;20254;-73
2021/08/24 02:55:29;;;;;;;29.10;23.80;;;;;;;15.25;100.00;98929.28;2080359;28;20298;-73
2021/08/24 02:56:31;;;;;;;39.05;25.58;;;;;;;15.26;100.00;98936.22;2080400;28;20253;-72
2021/08/24 02:57:32;;;;;;;38.15;25.40;;;;;;;15.25;100.00;98926.59;2079504;28;20592;-73
2021/08/24 02:58:33;;;;;;;35.93;25.43;;;;;;;15.24;100.00;98930.41;2079573;28;20227;-72
2021/08/24 02:59:34;;;;;;;31.35;25.52;;;;;;;15.23;100.00;98923.47;2078815;28;20249;-73
2021/08/24 03:00:36;;;;;;;33.70;25.43;;;;;;;15.22;100.00;98931.84;2071676;28;20780;-72
2021/08/24 03:01:37;;;;;;;39.15;26.38;;;;;;;15.22;100.00;98924.56;2079212;28;20314;-73
2021/08/24 03:02:38;;;;;;;32.83;25.53;;;;;;;15.22;100.00;98924.56;2079382;28;20220;-72
2021/08/24 03:03:39;;;;;;;34.83;26.27;;;;;;;15.23;100.00;98936.13;2079473;28;20489;-72
2021/08/24 03:04:41;;;;;;;35.90;26.87;;;;;;;15.22;100.00;98926.47;2079035;28;20231;-73
2021/08/24 03:05:44;;;;;;;35.33;25.80;;;;;;;15.21;100.00;98925.69;2071463;28;20323;-72
2021/08/24 03:06:48;;;;;;;30.55;26.40;;;;;;;15.21;100.00;98914.16;2079504;28;20227;-73
2021/08/24 03:07:48;;;;;;;40.67;27.33;;;;;;;15.18;100.00;98920.97;2079375;28;20739;-72
2021/08/24 03:08:51;;;;;;;35.10;26.23;;;;;;;15.17;100.00;98911.34;2079665;28;20623;-73
2021/08/24 03:09:52;;;;;;;38.20;25.88;;;;;;;15.16;100.00;98911.66;2078198;28;20310;-73
2021/08/24 03:10:54;;;;;;;35.78;25.70;;;;;;;15.16;100.00;98912.44;2079565;28;20231;-72
2021/08/24 03:12:01;;;;;;;39.53;26.27;;;;;;;15.15;100.00;98913.56;2080207;28;20306;-73
2021/08/24 03:13:12;;;;;;;35.55;26.58;;;;;;;15.16;100.00;98919.72;2079460;28;20239;-73
2021/08/24 03:14:15;;;;;;;37.70;27.45;;;;;;;15.15;100.00;98913.56;2072134;28;20291;-72
2021/08/24 03:15:19;;;;;;;38.88;27.45;;;;;;;15.16;100.00;98915.13;2079553;28;20220;-73
2021/08/24 03:16:23;;;;;;;42.78;27.63;;;;;;;15.15;100.00;98918.16;2079422;28;20250;-73
2021/08/24 03:17:29;;;;;;;34.05;27.08;;;;;;;15.15;100.00;98918.94;2071306;28;20310;-73
2021/08/24 03:18:34;;;;;;;37.42;27.27;;;;;;;15.16;100.00;98914.34;2071739;28;20311;-72
2021/08/24 03:19:36;;;;;;;39.22;27.88;;;;;;;15.16;100.00;98919.72;2071796;28;20630;-73
2021/08/24 03:20:41;;;;;;;35.17;26.70;;;;;;;15.14;100.00;98922.75;2071419;28;20219;-72
2021/08/24 03:21:42;;;;;;;33.33;26.98;;;;;;;15.11;100.00;98923.38;2063334;28;20244;-73
2021/08/24 03:22:45;;;;;;;33.77;26.27;;;;;;;15.07;100.00;98917.13;2071279;28;20224;-73
2021/08/24 03:23:46;;;;;;;37.92;28.10;;;;;;;15.08;100.00;98917.91;2080281;28;20303;-72
2021/08/24 03:24:49;;;;;;;36.80;28.40;;;;;;;15.06;100.00;98915.53;2080168;28;20231;-73
2021/08/24 03:25:50;;;;;;;37.47;26.80;;;;;;;15.04;100.00;98920.47;2080150;28;20310;-72
2021/08/24 03:26:52;;;;;;;43.67;27.55;;;;;;;15.05;100.00;98930.09;2080246;28;20639;-73
2021/08/24 03:27:53;;;;;;;38.20;27.40;;;;;;;15.05;100.00;98927.41;2079842;28;20253;-72
2021/08/24 03:28:55;;;;;;;40.30;27.87;;;;;;;15.08;100.00;98932.13;2080687;28;20223;-73
2021/08/24 03:29:58;;;;;;;37.55;28.15;;;;;;;15.08;100.00;98928.66;2080697;28;20258;-72
2021/08/24 03:30:59;;;;;;;36.20;26.92;;;;;;;15.05;100.00;98932.00;2081002;28;20580;-72
2021/08/24 03:32:00;;;;;;;35.88;27.73;;;;;;;15.05;100.00;98930.09;2081618;28;20246;-73
2021/08/24 03:33:01;;;;;;;39.97;28.03;;;;;;;15.08;100.00;98931.34;2081680;28;20231;-72
2021/08/24 03:34:02;;;;;;;36.80;28.25;;;;;;;15.06;100.00;98931.66;2081658;28;20277;-73
2021/08/24 03:35:05;;;;;;;38.20;27.27;;;;;;;15.07;100.00;98935.91;2081604;28;20710;-72
2021/08/24 03:36:07;;;;;;;39.22;28.10;;;;;;;15.08;100.00;98939.41;2081640;28;20229;-72
2021/08/24 03:37:09;;;;;;;43.95;29.15;;;;;;;15.07;100.00;98940.50;2081200;28;20231;-72
2021/08/24 03:38:11;;;;;;;40.23;28.53;;;;;;;15.08;100.00;98937.50;2081546;28;20285;-72
2021/08/24 03:39:12;;;;;;;36.22;28.60;;;;;;;15.11;100.00;98936.81;2080811;28;20310;-73
2021/08/24 03:40:16;;;;;;;35.47;28.03;;;;;;;15.08;100.00;98940.19;2080956;28;20223;-72
2021/08/24 03:41:16;;;;;;;37.28;28.30;;;;;;;15.12;100.00;98938.41;2080842;28;20246;-72
2021/08/24 03:42:18;;;;;;;40.63;29.20;;;;;;;15.13;100.00;98940.00;2080913;28;20689;-72
2021/08/24 03:43:19;;;;;;;44.63;28.77;;;;;;;15.11;100.00;98936.81;2080366;28;20226;-73
2021/08/24 03:44:20;;;;;;;40.30;29.03;;;;;;;15.08;100.00;98939.41;2080985;28;20709;-72
2021/08/24 03:45:21;;;;;;;46.08;29.00;;;;;;;15.12;100.00;98945.69;2080402;28;20349;-72
2021/08/24 03:46:23;;;;;;;42.63;29.20;;;;;;;15.10;100.00;98947.91;2080528;28;20235;-72
2021/08/24 03:47:24;;;;;;;38.25;28.58;;;;;;;15.08;100.00;98937.50;2081533;28;20775;-73
2021/08/24 03:48:26;;;;;;;45.67;29.47;;;;;;;15.13;100.00;98941.91;2081543;28;20609;-72
2021/08/24 03:49:26;;;;;;;42.17;29.52;;;;;;;15.11;100.00;98939.50;2081544;28;22441;-72
2021/08/24 03:50:28;;;;;;;43.37;29.97;;;;;;;15.12;100.00;98943.78;2080638;28;20739;-72
2021/08/24 03:51:28;;;;;;;42.28;29.23;;;;;;;15.13;100.00;98931.94;2079988;28;20307;-73
2021/08/24 03:52:30;;;;;;;42.47;30.93;;;;;;;15.17;100.00;98932.84;2080908;28;20685;-73
2021/08/24 03:53:31;;;;;;;37.33;29.88;;;;;;;15.17;100.00;98940.91;2081481;28;20302;-72
2021/08/24 03:54:33;;;;;;;45.70;29.88;;;;;;;15.15;100.00;98945.81;2081552;28;20632;-73
2021/08/24 03:55:35;;;;;;;41.13;29.75;;;;;;;15.14;100.00;98940.78;2081459;28;20296;-72
2021/08/24 03:56:37;;;;;;;40.67;31.50;;;;;;;15.17;100.00;98943.56;2081639;28;20227;-72
2021/08/24 03:57:37;;;;;;;41.70;31.92;;;;;;;15.17;100.00;98945.47;2079875;28;20318;-73
2021/08/24 03:58:40;;;;;;;42.90;32.93;;;;;;;15.15;100.00;98945.81;2080748;28;20239;-73
2021/08/24 03:59:40;;;;;;;46.72;30.33;;;;;;;15.15;100.00;98945.81;2081607;28;20310;-73
2021/08/24 04:00:43;;;;;;;45.93;30.67;;;;;;;15.14;100.00;98952.31;2080530;28;20219;-73
2021/08/24 04:01:43;;;;;;;40.95;30.15;;;;;;;15.14;100.00;98955.00;2080766;28;20223;-72
2021/08/24 04:02:45;;;;;;;37.00;29.80;;;;;;;15.11;100.00;98955.63;2081375;28;20227;-72
2021/08/24 04:03:46;;;;;;;46.95;31.15;;;;;;;15.14;100.00;98956.91;2081498;28;20306;-72
2021/08/24 04:04:47;;;;;;;48.27;31.50;;;;;;;15.13;100.00;98955.34;2081434;28;20227;-72
2021/08/24 04:05:48;;;;;;;44.88;30.90;;;;;;;15.12;100.00;98961.81;2081372;28;20311;-72
2021/08/24 04:06:49;;;;;;;46.67;31.20;;;;;;;15.12;100.00;98962.59;2081448;28;20226;-72
2021/08/24 04:07:52;;;;;;;47.30;32.05;;;;;;;15.12;100.00;98962.59;2080606;28;20223;-73
2021/08/24 04:08:53;;;;;;;43.20;29.98;;;;;;;15.12;100.00;98965.28;2071868;28;20226;-72
2021/08/24 04:09:54;;;;;;;41.63;30.58;;;;;;;15.11;100.00;98966.38;2072074;28;20297;-73
2021/08/24 04:10:57;;;;;;;42.43;28.43;;;;;;;15.10;100.00;98964.81;2080790;28;20266;-73
2021/08/24 04:11:58;;;;;;;48.63;32.95;;;;;;;15.12;100.00;98967.19;2080574;28;20724;-73
2021/08/24 04:12:59;;;;;;;43.07;32.23;;;;;;;15.13;100.00;98960.72;2079702;28;20601;-73
2021/08/24 04:14:00;;;;;;;44.33;31.38;;;;;;;15.13;100.00;98969.56;2080731;28;20235;-73
2021/08/24 04:15:02;;;;;;;48.57;31.50;;;;;;;15.14;100.00;98955.00;2081404;28;20227;-73
2021/08/24 04:16:07;;;;;;;40.78;31.63;;;;;;;15.14;100.00;98957.69;2080530;28;20227;-73
2021/08/24 04:17:10;;;;;;;48.30;30.20;;;;;;;15.15;100.00;98958.47;2080176;28;20286;-73
2021/08/24 04:18:10;;;;;;;44.20;30.75;;;;;;;15.15;100.00;98959.25;2081327;28;20744;-73
2021/08/24 04:19:12;;;;;;;45.80;31.00;;;;;;;15.17;100.00;98959.72;2081130;28;20633;-73
2021/08/24 04:20:16;;;;;;;44.10;31.25;;;;;;;15.18;100.00;98966.66;2081306;28;20235;-72
2021/08/24 04:21:18;;;;;;;40.60;30.92;;;;;;;15.17;100.00;98957.03;2081338;28;20306;-73
2021/08/24 04:22:22;;;;;;;48.20;31.23;;;;;;;15.18;100.00;98966.66;2080502;28;20309;-72
2021/08/24 04:23:23;;;;;;;43.75;30.33;;;;;;;15.18;100.00;98972.03;2080338;28;20231;-73
2021/08/24 04:24:25;;;;;;;45.15;31.20;;;;;;;15.21;100.00;98971.38;2081197;28;20223;-73
2021/08/24 04:25:26;;;;;;;44.28;29.75;;;;;;;15.22;100.00;98970.28;2081256;28;20247;-72
2021/08/24 04:26:28;;;;;;;44.88;30.42;;;;;;;15.24;100.00;98972.63;2081294;28;20247;-72
2021/08/24 04:27:30;;;;;;;41.20;30.35;;;;;;;15.23;100.00;98971.84;2080068;28;20232;-72
2021/08/24 04:28:30;;;;;;;47.60;31.23;;;;;;;15.23;100.00;98969.16;2080644;28;20266;-73
2021/08/24 04:29:32;;;;;;;46.03;30.80;;;;;;;15.24;100.00;98973.41;2079975;28;20223;-72
2021/08/24 04:30:34;;;;;;;49.00;31.25;;;;;;;15.23;100.00;98973.75;2080576;28;20223;-72
2021/08/24 04:31:38;;;;;;;48.55;30.73;;;;;;;15.23;100.00;98969.16;2081279;28;20277;-72
2021/08/24 04:32:42;;;;;;;48.38;31.73;;;;;;;15.24;100.00;98970.72;2080886;28;20235;-73
2021/08/24 04:33:43;;;;;;;44.72;30.65;;;;;;;15.24;100.00;98972.63;2080271;28;20211;-73
2021/08/24 04:34:44;;;;;;;49.40;31.33;;;;;;;15.26;100.00;98973.06;2080587;28;20310;-73
2021/08/24 04:35:45;;;;;;;41.33;30.33;;;;;;;15.24;100.00;98973.41;2081242;28;20231;-72
2021/08/24 04:36:46;;;;;;;45.97;31.90;;;;;;;15.26;100.00;98981.13;2081171;28;20302;-72
2021/08/24 04:37:48;;;;;;;43.37;30.83;;;;;;;15.28;100.00;98973.53;2081353;28;20227;-72
2021/08/24 04:38:48;;;;;;;47.00;31.20;;;;;;;15.27;100.00;98980.81;2080351;28;20254;-72
2021/08/24 04:39:50;;;;;;;53.73;32.37;;;;;;;15.26;100.00;98976.56;2080415;28;20215;-73
2021/08/24 04:40:51;;;;;;;46.88;30.63;;;;;;;15.25;100.00;98980.34;2080320;28;20310;-72
2021/08/24 04:41:54;;;;;;;43.65;30.95;;;;;;;15.26;100.00;98987.31;2079968;28;20219;-72
2021/08/24 04:42:55;;;;;;;45.50;30.70;;;;;;;15.26;100.00;98984.63;2080335;28;20313;-73
2021/08/24 04:43:56;;;;;;;49.27;31.80;;;;;;;15.26;100.00;98984.63;2081156;28;20227;-72
2021/08/24 04:44:58;;;;;;;47.67;31.17;;;;;;;15.27;100.00;98980.81;2081041;28;20258;-73
2021/08/24 04:46:00;;;;;;;46.83;30.90;;;;;;;15.28;100.00;98986.97;2081194;28;20291;-72
2021/08/24 04:47:00;;;;;;;50.55;31.33;;;;;;;15.29;100.00;98988.56;2081204;28;20698;-72
2021/08/24 04:48:02;;;;;;;43.90;30.73;;;;;;;15.30;100.00;98989.34;2081188;28;20223;-73
2021/08/24 04:49:03;;;;;;;45.40;31.77;;;;;;;15.32;100.00;98992.50;2081201;28;20242;-72